createdAt,value
2022-12-18T00:02:16.576Z,0.20
2022-12-18T00:07:19.482Z,2.63
2022-12-18T00:12:22.494Z,0.04
2022-12-18T00:17:25.601Z,-0.84
2022-12-18T00:22:28.809Z,2.24
2022-12-18T00:27:31.810Z,2.29
2022-12-18T00:32:34.925Z,-0.26
2022-12-18T00:37:37.926Z,-1.76
2022-12-18T00:42:58.962Z,0.15
2022-12-18T00:48:02.169Z,3.31
2022-12-18T00:53:05.686Z,1.00
2022-12-18T00:58:09.706Z,-1.13
2022-12-18T01:03:15.274Z,-2.32
2022-12-18T01:08:18.700Z,-0.88
2022-12-18T01:13:21.600Z,2.98
2022-12-18T01:18:24.711Z,0.51
2022-12-18T01:23:27.817Z,-1.57
2022-12-18T01:28:30.721Z,0.35
2022-12-18T01:33:33.731Z,2.09
2022-12-18T01:38:36.841Z,-0.62
2022-12-18T01:43:48.958Z,-2.14
2022-12-18T01:48:56.342Z,0.45
2022-12-18T01:54:00.874Z,1.63
2022-12-18T01:59:07.913Z,-1.11
2022-12-18T02:04:21.463Z,-2.65
2022-12-18T02:09:36.652Z,0.35
2022-12-18T02:14:46.418Z,2.11
2022-12-18T02:20:29.158Z,-0.98
2022-12-18T02:26:00.221Z,-2.97
2022-12-18T02:31:07.537Z,-4.07
2022-12-18T02:36:14.001Z,-1.28
2022-12-18T02:41:19.051Z,2.77
2022-12-18T02:46:28.118Z,0.50
2022-12-18T02:51:40.443Z,-2.15
2022-12-18T02:56:52.981Z,-1.23
2022-12-18T03:01:59.304Z,2.31
2022-12-18T03:07:07.076Z,-0.28
2022-12-18T03:12:26.064Z,-2.42
2022-12-18T03:17:33.344Z,-0.35
2022-12-18T03:22:38.596Z,2.64
2022-12-18T03:27:47.017Z,0.24
2022-12-18T03:33:16.175Z,-2.05
2022-12-18T03:38:19.788Z,0.95
2022-12-18T03:43:28.639Z,0.56
2022-12-18T03:48:40.318Z,-2.28
2022-12-18T03:54:05.179Z,0.06
2022-12-18T03:59:11.214Z,1.20
2022-12-18T04:04:17.249Z,-1.70
2022-12-18T04:09:21.882Z,-2.84
2022-12-18T04:14:24.872Z,0.38
2022-12-18T04:19:27.988Z,0.98
2022-12-18T04:24:31.194Z,-1.72
2022-12-18T04:29:34.303Z,-3.29
2022-12-18T04:34:37.410Z,-1.68
2022-12-18T04:39:40.417Z,2.19
2022-12-18T04:44:43.522Z,1.14
2022-12-18T04:49:46.433Z,-1.79
2022-12-18T04:54:49.538Z,-2.99
2022-12-18T04:59:52.544Z,-0.86
2022-12-18T05:04:55.654Z,2.60
2022-12-18T05:09:58.865Z,2.31
2022-12-18T05:15:02.075Z,-0.65
2022-12-18T05:20:05.706Z,-1.56
2022-12-18T05:25:09.619Z,2.31
2022-12-18T05:30:13.706Z,2.98
2022-12-18T05:35:16.762Z,0.01
2022-12-18T05:40:19.868Z,-0.73
2022-12-18T05:45:22.979Z,2.29
2022-12-18T05:50:25.986Z,2.72
2022-12-18T05:55:28.997Z,-0.10
2022-12-18T06:00:33.486Z,-0.44
2022-12-18T06:05:38.801Z,2.89
2022-12-18T06:10:42.627Z,3.58
2022-12-18T06:15:45.786Z,0.71
2022-12-18T06:20:57.009Z,-0.36
2022-12-18T06:26:00.029Z,3.54
2022-12-18T06:31:04.976Z,3.20
2022-12-18T06:36:11.648Z,0.30
2022-12-18T06:41:17.981Z,1.73
2022-12-18T06:46:21.202Z,4.73
2022-12-18T06:51:25.102Z,2.51
2022-12-18T06:56:29.095Z,0.08
2022-12-18T07:01:32.366Z,1.88
2022-12-18T07:06:35.651Z,-0.32
2022-12-18T07:11:38.759Z,1.94
2022-12-18T07:16:42.130Z,0.81
2022-12-18T07:21:45.181Z,-1.28
2022-12-18T07:26:49.008Z,1.82
2022-12-18T07:31:52.259Z,-0.07
2022-12-18T07:36:55.332Z,-0.31
2022-12-18T07:42:16.866Z,1.06
2022-12-18T07:47:20.182Z,-0.70
2022-12-18T07:52:26.169Z,2.55
2022-12-18T08:02:52.821Z,1.01
2022-12-18T08:07:57.155Z,3.91
2022-12-18T08:13:04.651Z,3.26
2022-12-18T08:18:12.650Z,1.00
2022-12-18T08:23:17.170Z,2.99
2022-12-18T08:28:20.072Z,3.73
2022-12-18T08:33:23.288Z,1.13
2022-12-18T08:38:26.392Z,2.09
2022-12-18T08:43:48.346Z,3.72
2022-12-18T08:48:52.786Z,1.51
2022-12-18T08:53:55.792Z,2.40
2022-12-18T08:58:59.099Z,4.03
2022-12-18T09:04:02.113Z,2.01
2022-12-18T09:09:06.553Z,3.68
2022-12-18T09:14:10.797Z,2.79
2022-12-18T09:19:13.891Z,2.76
2022-12-18T09:24:17.411Z,3.03
2022-12-18T09:29:20.418Z,1.45
2022-12-18T09:34:23.431Z,4.18
2022-12-18T09:39:26.430Z,3.42
2022-12-18T09:44:55.043Z,1.46
2022-12-18T09:50:02.756Z,3.85
2022-12-18T09:55:26.446Z,3.59
2022-12-18T10:00:29.654Z,1.80
2022-12-18T10:05:42.082Z,4.21
2022-12-18T10:10:51.048Z,4.96
2022-12-18T10:16:19.009Z,2.54
2022-12-18T10:21:38.924Z,3.42
2022-12-18T10:26:43.353Z,4.67
2022-12-18T10:31:46.373Z,2.37
2022-12-18T10:36:49.579Z,2.98
2022-12-18T10:41:53.007Z,4.72
2022-12-18T10:47:10.210Z,2.34
2022-12-18T10:52:22.975Z,2.01
2022-12-18T10:57:39.736Z,2.46
2022-12-18T11:02:42.920Z,2.46
2022-12-18T11:07:55.178Z,4.21
2022-12-18T11:13:18.417Z,1.88
2022-12-18T11:18:27.667Z,2.08
2022-12-18T11:23:30.798Z,4.02
2022-12-18T11:28:40.413Z,1.75
2022-12-18T11:34:19.702Z,0.42
2022-12-18T11:39:25.875Z,1.03
2022-12-18T11:45:02.439Z,4.52
2022-12-18T11:50:16.734Z,2.50
2022-12-18T11:55:45.445Z,0.87
2022-12-18T12:01:15.547Z,0.00
2022-12-18T12:06:32.625Z,2.32
2022-12-18T12:11:38.603Z,3.70
2022-12-18T12:17:23.386Z,1.50
2022-12-18T12:22:43.495Z,0.14
2022-12-18T12:28:07.899Z,-0.22
2022-12-18T12:33:13.526Z,3.09
2022-12-18T12:38:25.486Z,1.90
2022-12-18T12:43:33.508Z,0.65
2022-12-18T12:48:55.360Z,3.37
2022-12-18T12:54:01.334Z,1.59
2022-12-18T12:59:16.739Z,-0.11
2022-12-18T13:04:31.832Z,-1.11
2022-12-18T13:09:55.613Z,-0.08
2022-12-18T13:15:24.217Z,2.78
2022-12-18T13:20:39.005Z,0.40
2022-12-18T13:25:42.730Z,-1.15
2022-12-18T13:30:57.151Z,-2.03
2022-12-18T13:36:14.244Z,-2.74
2022-12-18T13:41:23.187Z,-2.03
2022-12-18T13:46:30.493Z,1.75
2022-12-18T13:51:35.252Z,0.47
2022-12-18T13:56:45.885Z,-1.67
2022-12-18T14:01:55.658Z,-2.90
2022-12-18T14:07:04.945Z,-3.62
2022-12-18T14:12:35.299Z,-0.83
2022-12-18T14:17:38.507Z,1.26
2022-12-18T14:22:46.320Z,-1.41
2022-12-18T14:27:53.636Z,-2.72
2022-12-18T14:33:12.925Z,0.39
2022-12-18T14:38:24.830Z,0.27
2022-12-18T14:43:30.686Z,-1.94
2022-12-18T14:48:36.585Z,0.66
2022-12-18T14:53:47.577Z,-0.89
2022-12-18T14:58:56.720Z,0.20
2022-12-18T15:04:01.195Z,1.92
2022-12-18T15:09:24.263Z,-0.93
2022-12-18T15:14:36.463Z,0.08
2022-12-18T15:19:44.751Z,1.50
2022-12-18T15:24:48.104Z,-1.22
2022-12-18T15:30:06.371Z,0.51
2022-12-18T15:35:09.242Z,-1.17
2022-12-18T15:40:18.219Z,0.86
2022-12-18T15:45:23.065Z,1.69
2022-12-18T15:50:27.610Z,-1.37
2022-12-18T15:55:50.538Z,-2.15
2022-12-18T16:00:54.215Z,1.21
2022-12-18T16:05:59.465Z,-0.38
2022-12-18T16:11:03.397Z,-2.45
2022-12-18T16:16:06.962Z,0.21
2022-12-18T16:21:10.119Z,0.89
2022-12-18T16:26:13.438Z,-1.71
2022-12-18T16:31:16.717Z,0.86
2022-12-18T16:36:19.858Z,0.45
2022-12-18T16:41:34.948Z,-1.34
2022-12-18T16:46:40.103Z,1.79
2022-12-18T16:51:43.797Z,-0.51
2022-12-18T16:56:50.005Z,0.47
2022-12-18T17:01:53.420Z,0.78
2022-12-18T17:06:56.681Z,-0.18
2022-12-18T17:12:04.134Z,2.29
2022-12-18T17:17:20.864Z,-0.35
2022-12-18T17:22:24.798Z,1.15
2022-12-18T17:27:28.014Z,2.63
2022-12-18T17:32:31.127Z,-0.20
2022-12-18T17:37:34.227Z,2.05
2022-12-18T17:42:37.645Z,1.90
2022-12-18T17:47:40.653Z,-0.51
2022-12-18T17:52:43.674Z,0.96
2022-12-18T17:57:46.764Z,-0.33
2022-12-18T18:02:49.914Z,2.35
2022-12-18T18:07:53.397Z,0.92
2022-12-18T18:13:15.348Z,-0.00
2022-12-18T18:18:18.354Z,1.61
2022-12-18T18:23:25.158Z,-0.88
2022-12-18T18:28:28.256Z,1.24
2022-12-18T18:33:31.731Z,-0.50
2022-12-18T18:38:34.782Z,-2.85
2022-12-18T18:43:38.032Z,-4.28
2022-12-18T18:48:43.710Z,-2.44
2022-12-18T18:53:55.776Z,0.11
2022-12-18T18:58:59.030Z,-2.79
2022-12-18T19:04:04.231Z,-4.38
2022-12-18T19:09:07.269Z,-1.92
2022-12-18T19:14:12.230Z,-0.76
2022-12-18T19:19:17.947Z,-0.38
2022-12-18T19:24:22.493Z,-0.00
2022-12-18T19:29:25.838Z,0.35
2022-12-18T19:34:28.840Z,1.86
2022-12-18T19:39:32.050Z,2.69
2022-12-18T19:44:35.262Z,3.02
2022-12-18T19:49:38.981Z,3.24
2022-12-18T19:54:42.204Z,3.66
2022-12-18T19:59:45.409Z,4.02
2022-12-18T20:04:51.181Z,4.19
2022-12-18T20:10:01.393Z,4.34
2022-12-18T20:15:09.710Z,4.25
2022-12-18T20:20:12.793Z,4.23
2022-12-18T20:25:16.381Z,3.50
2022-12-18T20:30:19.624Z,2.59
2022-12-18T20:35:22.737Z,1.75
2022-12-18T20:40:26.866Z,1.77
2022-12-18T20:45:29.869Z,2.23
2022-12-18T20:50:32.774Z,2.55
2022-12-18T20:55:35.781Z,3.27
2022-12-18T21:00:38.684Z,3.79
2022-12-18T21:05:41.807Z,4.19
2022-12-18T21:10:44.905Z,4.48
2022-12-18T21:15:48.422Z,4.65
2022-12-18T21:20:51.638Z,4.57
2022-12-18T21:25:56.067Z,4.59
2022-12-18T21:30:59.572Z,4.53
2022-12-18T21:36:07.430Z,4.34
2022-12-18T21:41:31.311Z,4.29
2022-12-18T21:46:34.803Z,4.28
2022-12-18T21:51:39.045Z,3.70
2022-12-18T21:56:48.005Z,2.53
2022-12-18T22:01:52.764Z,2.95
2022-12-18T22:06:56.470Z,3.55
2022-12-18T22:12:00.306Z,3.93
2022-12-18T22:17:03.305Z,4.03
2022-12-18T22:22:06.927Z,3.35
2022-12-18T22:27:10.036Z,3.32
2022-12-18T22:32:22.084Z,3.39
2022-12-18T22:37:34.789Z,3.17
2022-12-18T22:42:37.903Z,2.60
2022-12-18T22:47:41.011Z,2.43
2022-12-18T22:52:44.011Z,2.20
2022-12-18T22:57:49.160Z,1.82
2022-12-18T23:02:59.976Z,2.37
2022-12-18T23:08:05.425Z,2.98
2022-12-18T23:13:08.740Z,3.45
2022-12-18T23:18:11.844Z,3.85
2022-12-18T23:23:14.853Z,3.73
2022-12-18T23:28:17.976Z,3.07
2022-12-18T23:33:21.169Z,3.28
2022-12-18T23:38:24.277Z,3.67
2022-12-18T23:43:27.493Z,3.66
2022-12-18T23:48:30.596Z,3.78
2022-12-18T23:53:33.704Z,4.10
2022-12-18T23:58:37.992Z,4.37
